createdAt,value
2023-02-19T00:00:26.597Z,97824.63
2023-02-19T00:02:52.916Z,97820.75
2023-02-19T00:05:19.215Z,97824.22
2023-02-19T00:07:45.488Z,97832.19
2023-02-19T00:10:11.748Z,97822.38
2023-02-19T00:12:38.030Z,97823.22
2023-02-19T00:15:04.284Z,97825.06
2023-02-19T00:17:30.569Z,97824.03
2023-02-19T00:19:56.875Z,97823.19
2023-02-19T00:22:23.135Z,97814.38
2023-02-19T00:24:49.396Z,97822.78
2023-02-19T00:27:15.674Z,97811.88
2023-02-19T00:29:41.922Z,97816.63
2023-02-19T00:32:08.278Z,97821.94
2023-02-19T00:34:34.569Z,97815.84
2023-02-19T00:37:00.850Z,97821.34
2023-02-19T00:39:27.108Z,97815.59
2023-02-19T00:41:53.362Z,97814.13
2023-02-19T00:44:19.625Z,97814.91
2023-02-19T00:46:46.014Z,97811.00
2023-02-19T00:49:12.308Z,97813.44
2023-02-19T00:51:38.553Z,97812.22
2023-02-19T00:54:04.826Z,97816.28
2023-02-19T00:56:31.105Z,97826.53
2023-02-19T00:58:57.472Z,97819.56
2023-02-19T01:01:23.869Z,97823.06
2023-02-19T01:03:50.191Z,97824.91
2023-02-19T01:06:16.434Z,97808.69
2023-02-19T01:08:42.709Z,97810.91
2023-02-19T01:11:09.364Z,97811.53
2023-02-19T01:13:35.722Z,97813.59
2023-02-19T01:16:01.996Z,97819.31
2023-02-19T01:18:28.294Z,97807.22
2023-02-19T01:20:54.554Z,97810.31
2023-02-19T01:23:20.947Z,97804.53
2023-02-19T01:25:47.233Z,97815.44
2023-02-19T01:28:13.492Z,97810.91
2023-02-19T01:30:39.771Z,97810.91
2023-02-19T01:33:06.058Z,97812.78
2023-02-19T01:35:32.322Z,97814.63
2023-02-19T01:37:58.598Z,97809.28
2023-02-19T01:40:24.869Z,97806.63
2023-02-19T01:42:51.140Z,97809.50
2023-02-19T01:45:17.395Z,97804.16
2023-02-19T01:47:43.646Z,97803.34
2023-02-19T01:50:09.904Z,97802.31
2023-02-19T01:52:36.194Z,97803.13
2023-02-19T01:55:02.463Z,97800.88
2023-02-19T01:57:28.763Z,97792.28
2023-02-19T01:59:55.098Z,97793.31
2023-02-19T02:02:21.378Z,97782.03
2023-02-19T02:04:47.639Z,97780.00
2023-02-19T02:07:13.926Z,97776.31
2023-02-19T02:09:40.204Z,97770.34
2023-02-19T02:12:06.485Z,97774.88
2023-02-19T02:14:32.762Z,97771.41
2023-02-19T02:16:59.027Z,97771.19
2023-02-19T02:19:25.308Z,97778.16
2023-02-19T02:21:51.606Z,97771.00
2023-02-19T02:24:17.939Z,97769.16
2023-02-19T02:26:44.237Z,97760.53
2023-02-19T02:29:10.483Z,97767.31
2023-02-19T02:31:36.867Z,97763.22
2023-02-19T02:34:03.202Z,97762.59
2023-02-19T02:36:29.503Z,97770.00
2023-02-19T02:38:55.794Z,97759.94
2023-02-19T02:41:22.043Z,97751.34
2023-02-19T02:43:48.318Z,97756.44
2023-02-19T02:46:14.571Z,97762.03
2023-02-19T02:48:40.845Z,97764.50
2023-02-19T02:51:07.342Z,97757.94
2023-02-19T02:53:33.617Z,97758.16
2023-02-19T02:55:59.902Z,97758.81
2023-02-19T02:58:26.235Z,97753.88
2023-02-19T03:00:52.500Z,97749.56
2023-02-19T03:03:18.780Z,97747.91
2023-02-19T03:05:45.125Z,97745.84
2023-02-19T03:08:11.373Z,97747.91
2023-02-19T03:10:37.651Z,97741.38
2023-02-19T03:13:03.938Z,97746.31
2023-02-19T03:15:30.210Z,97744.50
2023-02-19T03:17:56.567Z,97748.81
2023-02-19T03:20:22.858Z,97750.28
2023-02-19T03:22:49.114Z,97742.50
2023-02-19T03:25:15.370Z,97743.13
2023-02-19T03:27:41.638Z,97741.28
2023-02-19T03:30:07.940Z,97726.91
2023-02-19T03:32:34.249Z,97713.34
2023-02-19T03:35:00.535Z,97721.31
2023-02-19T03:37:26.795Z,97721.94
2023-02-19T03:39:53.071Z,97728.91
2023-02-19T03:42:19.343Z,97727.69
2023-02-19T03:44:45.624Z,97720.50
2023-02-19T03:47:11.880Z,97724.00
2023-02-19T03:49:38.157Z,97728.28
2023-02-19T03:52:04.414Z,97725.63
2023-02-19T03:54:30.764Z,97731.19
2023-02-19T03:56:57.009Z,97729.94
2023-02-19T03:59:23.274Z,97736.09
2023-02-19T04:01:49.554Z,97739.34
2023-02-19T04:04:15.819Z,97739.34
2023-02-19T04:06:42.086Z,97743.47
2023-02-19T04:09:08.368Z,97746.16
2023-02-19T04:11:34.645Z,97747.38
2023-02-19T04:14:01.002Z,97758.88
2023-02-19T04:16:27.305Z,97756.03
2023-02-19T04:18:53.559Z,97763.41
2023-02-19T04:21:19.826Z,97764.28
2023-02-19T04:23:46.104Z,97765.13
2023-02-19T04:26:12.360Z,97769.25
2023-02-19T04:28:38.602Z,97764.34
2023-02-19T04:31:04.933Z,97772.97
2023-02-19T04:33:31.249Z,97780.16
2023-02-19T04:35:57.495Z,97786.34
2023-02-19T04:38:23.782Z,97795.59
2023-02-19T04:40:50.057Z,97795.81
2023-02-19T04:43:16.305Z,97787.84
2023-02-19T04:45:42.571Z,97791.94
2023-02-19T04:48:08.846Z,97778.22
2023-02-19T04:50:35.150Z,97789.06
2023-02-19T04:53:01.411Z,97784.38
2023-02-19T04:55:27.682Z,97791.94
2023-02-19T04:57:54.029Z,97797.88
2023-02-19T05:00:20.274Z,97802.78
2023-02-19T05:02:46.530Z,97801.78
2023-02-19T05:05:12.796Z,97789.91
2023-02-19T05:07:39.078Z,97770.63
2023-02-19T05:10:05.364Z,97754.25
2023-02-19T05:12:31.658Z,97758.97
2023-02-19T05:14:57.925Z,97767.16
2023-02-19T05:17:24.197Z,97775.75
2023-02-19T05:19:50.478Z,97766.53
2023-02-19T05:22:16.727Z,97761.41
2023-02-19T05:24:42.989Z,97755.66
2023-02-19T05:27:09.273Z,97749.72
2023-02-19T05:29:35.539Z,97741.13
2023-02-19T05:32:01.800Z,97733.34
2023-02-19T05:34:28.094Z,97735.59
2023-02-19T05:36:54.337Z,97738.66
2023-02-19T05:39:20.595Z,97737.44
2023-02-19T05:41:46.859Z,97730.47
2023-02-19T05:44:13.154Z,97727.41
2023-02-19T05:46:39.464Z,97731.94
2023-02-19T05:49:05.724Z,97748.50
2023-02-19T05:51:31.989Z,97755.28
2023-02-19T05:53:58.275Z,97764.06
2023-02-19T05:56:24.562Z,97750.97
2023-02-19T05:58:50.826Z,97744.41
2023-02-19T06:01:17.097Z,97738.88
2023-02-19T06:03:43.413Z,97744.00
2023-02-19T06:06:09.695Z,97737.03
2023-02-19T06:08:35.970Z,97740.72
2023-02-19T06:11:02.238Z,97749.94
2023-02-19T06:13:28.515Z,97755.25
2023-02-19T06:15:54.787Z,97766.94
2023-02-19T06:18:21.099Z,97772.69
2023-02-19T06:20:47.407Z,97784.56
2023-02-19T06:23:13.655Z,97782.09
2023-02-19T06:25:39.926Z,97782.09
2023-02-19T06:28:06.171Z,97778.00
2023-02-19T06:30:32.499Z,97796.25
2023-02-19T06:32:58.794Z,97805.66
2023-02-19T06:35:25.074Z,97811.19
2023-02-19T06:37:51.341Z,97811.59
2023-02-19T06:40:17.595Z,97812.41
2023-02-19T06:42:43.878Z,97817.75
2023-02-19T06:45:10.135Z,97809.13
2023-02-19T06:47:36.396Z,97818.56
2023-02-19T06:50:02.686Z,97801.78
2023-02-19T06:52:28.975Z,97802.59
2023-02-19T06:54:55.283Z,97803.81
2023-02-19T06:57:21.566Z,97806.28
2023-02-19T06:59:47.817Z,97807.50
2023-02-19T07:02:14.064Z,97803.41
2023-02-19T07:04:40.430Z,97815.28
2023-02-19T07:07:06.712Z,97812.63
2023-02-19T07:09:32.971Z,97819.38
2023-02-19T07:11:59.235Z,97817.72
2023-02-19T07:14:25.512Z,97837.41
2023-02-19T07:16:51.798Z,97842.94
2023-02-19T07:19:18.093Z,97837.00
2023-02-19T07:21:44.375Z,97840.47
2023-02-19T07:24:10.649Z,97842.75
2023-02-19T07:26:36.908Z,97848.66
2023-02-19T07:29:03.201Z,97840.06
2023-02-19T07:31:29.704Z,97843.13
2023-02-19T07:33:56.013Z,97854.81
2023-02-19T07:36:22.266Z,97868.16
2023-02-19T07:38:48.533Z,97877.16
2023-02-19T07:41:14.841Z,97862.59
2023-02-19T07:43:41.109Z,97866.09
2023-02-19T07:46:07.381Z,97880.22
2023-02-19T07:48:33.656Z,97882.69
2023-02-19T07:50:59.942Z,97888.44
2023-02-19T07:53:26.213Z,97890.69
2023-02-19T07:55:52.504Z,97885.78
2023-02-19T07:58:18.752Z,97901.38
2023-02-19T08:00:45.036Z,97894.59
2023-02-19T08:03:11.401Z,97897.06
2023-02-19T08:05:37.727Z,97897.66
2023-02-19T08:08:04.028Z,97892.13
2023-02-19T08:10:30.326Z,97900.75
2023-02-19T08:12:56.590Z,97900.53
2023-02-19T08:15:22.864Z,97899.09
2023-02-19T08:17:49.117Z,97907.66
2023-02-19T08:20:15.404Z,97905.19
2023-02-19T08:22:41.786Z,97901.69
2023-02-19T08:25:08.058Z,97904.97
2023-02-19T08:27:34.353Z,97906.41
2023-02-19T08:30:00.692Z,97901.91
2023-02-19T08:32:26.996Z,97910.28
2023-02-19T08:34:53.250Z,97916.03
2023-02-19T08:37:19.508Z,97917.47
2023-02-19T08:39:45.788Z,97926.91
2023-02-19T08:42:12.061Z,97928.78
2023-02-19T08:44:38.324Z,97926.94
2023-02-19T08:47:04.573Z,97931.03
2023-02-19T08:49:30.831Z,97935.94
2023-02-19T08:51:57.090Z,97934.72
2023-02-19T08:54:23.334Z,97932.66
2023-02-19T08:56:49.593Z,97928.16
2023-02-19T08:59:15.862Z,97924.03
2023-02-19T09:01:42.191Z,97924.03
2023-02-19T09:04:08.549Z,97926.06
2023-02-19T09:06:34.850Z,97929.94
2023-02-19T09:09:01.129Z,97934.44
2023-02-19T09:11:27.389Z,97934.03
2023-02-19T09:13:53.782Z,97928.28
2023-02-19T09:16:20.050Z,97924.16
2023-02-19T09:18:46.323Z,97925.16
2023-02-19T09:21:12.973Z,97925.13
2023-02-19T09:23:39.407Z,97929.84
2023-02-19T09:26:05.674Z,97925.91
2023-02-19T09:28:31.951Z,97923.25
2023-02-19T09:30:58.251Z,97923.44
2023-02-19T09:33:24.570Z,97916.03
2023-02-19T09:35:51.009Z,97918.28
2023-02-19T09:38:17.292Z,97923.19
2023-02-19T09:40:43.536Z,97921.31
2023-02-19T09:43:09.817Z,97921.28
2023-02-19T09:45:36.087Z,97920.63
2023-02-19T09:48:02.412Z,97930.03
2023-02-19T09:50:28.673Z,97925.69
2023-02-19T09:52:54.918Z,97924.44
2023-02-19T09:55:21.183Z,97918.66
2023-02-19T09:57:47.456Z,97920.28
2023-02-19T10:00:13.738Z,97915.13
2023-02-19T10:02:40.000Z,97920.03
2023-02-19T10:05:06.308Z,97922.25
2023-02-19T10:07:32.593Z,97913.38
2023-02-19T10:09:59.934Z,97913.94
2023-02-19T10:12:26.205Z,97923.16
2023-02-19T10:14:52.503Z,97920.25
2023-02-19T10:17:18.812Z,97918.47
2023-02-19T10:19:45.092Z,97919.91
2023-02-19T10:22:11.344Z,97916.63
2023-02-19T10:24:38.641Z,97912.47
2023-02-19T10:27:04.920Z,97913.69
2023-02-19T10:29:31.191Z,97920.22
2023-02-19T10:31:57.511Z,97911.31
2023-02-19T10:34:23.962Z,97906.44
2023-02-19T10:36:50.241Z,97915.97
2023-02-19T10:39:16.508Z,97921.13
2023-02-19T10:41:44.332Z,97925.72
2023-02-19T10:44:10.735Z,97925.94
2023-02-19T10:46:37.083Z,97913.59
2023-02-19T10:49:03.431Z,97912.25
2023-02-19T10:51:29.716Z,97911.66
2023-02-19T10:53:55.977Z,97913.81
2023-02-19T10:56:22.256Z,97912.41
2023-02-19T10:58:48.509Z,97913.00
2023-02-19T11:01:14.789Z,97912.19
2023-02-19T11:03:41.056Z,97911.22
2023-02-19T11:06:07.304Z,97908.22
2023-02-19T11:08:33.574Z,97911.59
2023-02-19T11:10:59.847Z,97908.47
2023-02-19T11:13:26.136Z,97911.97
2023-02-19T11:15:52.445Z,97904.50
2023-02-19T11:18:18.801Z,97900.47
2023-02-19T11:20:45.050Z,97887.75
2023-02-19T11:23:11.316Z,97893.25
2023-02-19T11:25:37.601Z,97878.34
2023-02-19T11:28:03.886Z,97875.59
2023-02-19T11:30:30.193Z,97881.16
2023-02-19T11:32:56.534Z,97878.25
2023-02-19T11:35:22.828Z,97872.81
2023-02-19T11:37:49.106Z,97871.22
2023-02-19T11:40:15.420Z,97865.97
2023-02-19T11:42:41.845Z,97860.38
2023-02-19T11:45:08.174Z,97860.72
2023-02-19T11:47:34.487Z,97858.75
2023-02-19T11:50:00.791Z,97856.19
2023-02-19T11:52:27.070Z,97848.63
2023-02-19T11:54:53.323Z,97844.53
2023-02-19T11:57:19.588Z,97850.16
2023-02-19T11:59:45.852Z,97831.59
2023-02-19T12:02:12.165Z,97827.72
2023-02-19T12:04:38.462Z,97821.75
2023-02-19T12:07:04.748Z,97825.09
2023-02-19T12:09:31.063Z,97817.13
2023-02-19T12:11:57.349Z,97816.03
2023-02-19T12:14:23.613Z,97807.91
2023-02-19T12:16:49.852Z,97806.53
2023-02-19T12:19:16.175Z,97798.59
2023-02-19T12:21:42.422Z,97796.81
2023-02-19T12:24:08.694Z,97782.97
2023-02-19T12:26:34.982Z,97792.66
2023-02-19T12:29:01.234Z,97801.16
2023-02-19T12:31:27.645Z,97796.41
2023-02-19T12:33:53.943Z,97795.84
2023-02-19T12:36:20.195Z,97796.78
2023-02-19T12:38:46.477Z,97799.56
2023-02-19T12:41:12.804Z,97795.06
2023-02-19T12:43:39.088Z,97795.69
2023-02-19T12:46:05.410Z,97794.22
2023-02-19T12:48:31.741Z,97791.47
2023-02-19T12:50:58.000Z,97792.09
2023-02-19T12:53:24.253Z,97788.66
2023-02-19T12:55:50.529Z,97789.91
2023-02-19T12:58:16.823Z,97784.91
2023-02-19T13:00:43.152Z,97789.25
2023-02-19T13:03:09.414Z,97786.63
2023-02-19T13:05:35.686Z,97773.22
2023-02-19T13:08:01.973Z,97773.31
2023-02-19T13:10:28.278Z,97766.44
2023-02-19T13:12:54.570Z,97761.53
2023-02-19T13:15:20.845Z,97755.75
2023-02-19T13:17:47.124Z,97759.72
2023-02-19T13:20:13.439Z,97758.00
2023-02-19T13:22:39.726Z,97746.91
2023-02-19T13:25:06.008Z,97749.00
2023-02-19T13:27:32.357Z,97760.84
2023-02-19T13:29:58.757Z,97754.84
2023-02-19T13:32:25.030Z,97751.66
2023-02-19T13:34:51.307Z,97740.88
2023-02-19T13:37:17.577Z,97742.47
2023-02-19T13:39:43.831Z,97740.22
2023-02-19T13:42:10.151Z,97742.88
2023-02-19T13:44:36.451Z,97748.47
2023-02-19T13:47:02.748Z,97752.59
2023-02-19T13:49:29.227Z,97754.75
2023-02-19T13:51:55.561Z,97751.31
2023-02-19T13:54:21.892Z,97753.63
2023-02-19T13:56:48.262Z,97737.56
2023-02-19T13:59:14.616Z,97738.94
2023-02-19T14:01:40.934Z,97741.94
2023-02-19T14:04:07.242Z,97743.28
2023-02-19T14:06:33.577Z,97740.59
2023-02-19T14:08:59.880Z,97754.44
2023-02-19T14:11:26.141Z,97744.97
2023-02-19T14:13:52.400Z,97750.72
2023-02-19T14:16:18.642Z,97746.13
2023-02-19T14:18:44.961Z,97743.16
2023-02-19T14:21:11.402Z,97737.09
2023-02-19T14:23:37.784Z,97730.88
2023-02-19T14:26:04.053Z,97726.88
2023-02-19T14:28:30.368Z,97721.78
2023-02-19T14:30:56.749Z,97722.09
2023-02-19T14:33:23.031Z,97713.09
2023-02-19T14:35:49.484Z,97712.00
2023-02-19T14:38:15.765Z,97715.47
2023-02-19T14:40:42.041Z,97713.25
2023-02-19T14:43:08.311Z,97706.94
2023-02-19T14:45:34.562Z,97701.09
2023-02-19T14:48:00.825Z,97705.28
2023-02-19T14:50:27.114Z,97702.25
2023-02-19T14:52:53.404Z,97710.38
2023-02-19T14:55:19.654Z,97718.84
2023-02-19T14:57:45.916Z,97720.50
2023-02-19T15:00:14.005Z,97725.94
2023-02-19T15:02:40.368Z,97725.78
2023-02-19T15:05:06.630Z,97721.72
2023-02-19T15:07:33.022Z,97719.31
2023-02-19T15:09:59.362Z,97730.69
2023-02-19T15:12:25.619Z,97731.56
2023-02-19T15:14:51.941Z,97726.50
2023-02-19T15:17:18.215Z,97738.56
2023-02-19T15:19:44.499Z,97742.88
2023-02-19T15:22:10.845Z,97726.91
2023-02-19T15:24:37.101Z,97723.16
2023-02-19T15:27:03.361Z,97719.53
2023-02-19T15:29:29.650Z,97717.44
2023-02-19T15:31:56.072Z,97716.75
2023-02-19T15:34:22.409Z,97724.66
2023-02-19T15:36:48.697Z,97722.75
2023-02-19T15:39:15.089Z,97733.34
2023-02-19T15:41:41.482Z,97731.84
2023-02-19T15:44:07.735Z,97731.09
2023-02-19T15:46:34.034Z,97719.47
2023-02-19T15:49:00.376Z,97709.19
2023-02-19T15:51:26.730Z,97710.28
2023-02-19T15:53:53.164Z,97712.44
2023-02-19T15:56:19.459Z,97719.75
2023-02-19T15:58:45.717Z,97725.97
2023-02-19T16:01:12.262Z,97732.75
2023-02-19T16:03:38.714Z,97742.19
2023-02-19T16:06:05.071Z,97735.13
2023-02-19T16:08:31.371Z,97736.22
2023-02-19T16:10:57.645Z,97742.94
2023-02-19T16:13:23.911Z,97756.16
2023-02-19T16:15:50.237Z,97754.25
2023-02-19T16:18:16.579Z,97756.94
2023-02-19T16:20:42.851Z,97762.88
2023-02-19T16:23:09.149Z,97762.19
2023-02-19T16:25:35.398Z,97753.81
2023-02-19T16:28:01.686Z,97751.06
2023-02-19T16:30:27.973Z,97751.56
2023-02-19T16:32:54.287Z,97754.81
2023-02-19T16:35:20.686Z,97757.44
2023-02-19T16:37:47.279Z,97769.06
2023-02-19T16:40:16.370Z,97770.09
2023-02-19T16:42:43.102Z,97770.06
2023-02-19T16:45:09.422Z,97767.81
2023-02-19T16:47:35.973Z,97771.00
2023-02-19T16:50:02.254Z,97778.69
2023-02-19T16:52:28.528Z,97781.44
2023-02-19T16:54:54.797Z,97790.03
2023-02-19T16:57:21.108Z,97792.06
2023-02-19T16:59:47.451Z,97794.81
2023-02-19T17:02:13.693Z,97812.56
2023-02-19T17:04:40.052Z,97812.19
2023-02-19T17:07:06.321Z,97814.69
2023-02-19T17:09:32.610Z,97815.88
2023-02-19T17:11:58.874Z,97819.47
2023-02-19T17:14:25.129Z,97830.84
2023-02-19T17:16:51.419Z,97825.66
2023-02-19T17:19:17.672Z,97829.91
2023-02-19T17:21:43.917Z,97844.66
2023-02-19T17:24:10.193Z,97847.69
2023-02-19T17:26:36.480Z,97856.72
2023-02-19T17:29:02.758Z,97851.75
2023-02-19T17:31:29.161Z,97852.47
2023-02-19T17:33:55.534Z,97857.97
2023-02-19T17:36:21.798Z,97858.44
2023-02-19T17:38:48.044Z,97872.47
2023-02-19T17:41:14.306Z,97871.25
2023-02-19T17:43:40.837Z,97879.19
2023-02-19T17:46:07.172Z,97873.25
2023-02-19T17:48:33.498Z,97874.03
2023-02-19T17:50:59.753Z,97883.25
2023-02-19T17:53:26.058Z,97884.56
2023-02-19T17:55:52.390Z,97880.34
2023-02-19T17:58:18.687Z,97884.44
2023-02-19T18:00:45.026Z,97884.78
2023-02-19T18:03:11.329Z,97883.38
2023-02-19T18:05:37.717Z,97883.97
2023-02-19T18:08:04.025Z,97897.38
2023-02-19T18:10:30.650Z,97898.88
2023-02-19T18:13:00.171Z,97896.19
2023-02-19T18:15:26.429Z,97906.47
2023-02-19T18:17:53.014Z,97895.75
2023-02-19T18:20:19.279Z,97903.31
2023-02-19T18:22:45.639Z,97910.97
2023-02-19T18:25:12.027Z,97913.66
2023-02-19T18:27:38.278Z,97919.13
2023-02-19T18:30:04.607Z,97918.44
2023-02-19T18:32:30.890Z,97924.25
2023-02-19T18:34:57.184Z,97926.81
2023-02-19T18:37:23.449Z,97916.81
2023-02-19T18:39:49.706Z,97914.72
2023-02-19T18:42:15.983Z,97904.28
2023-02-19T18:44:42.349Z,97907.78
2023-02-19T18:47:08.613Z,97904.88
2023-02-19T18:49:34.869Z,97903.97
2023-02-19T18:52:01.208Z,97902.44
2023-02-19T18:54:27.487Z,97904.47
2023-02-19T18:56:53.735Z,97900.03
2023-02-19T18:59:20.020Z,97914.59
2023-02-19T19:01:46.329Z,97902.97
2023-02-19T19:04:12.662Z,97916.97
2023-02-19T19:06:38.937Z,97910.41
2023-02-19T19:09:05.204Z,97913.09
2023-02-19T19:11:31.495Z,97913.31
2023-02-19T19:13:57.745Z,97912.47
2023-02-19T19:16:24.021Z,97916.91
2023-02-19T19:18:50.327Z,97915.38
2023-02-19T19:21:16.613Z,97919.31
2023-02-19T19:23:42.892Z,97918.50
2023-02-19T19:26:09.682Z,97924.22
2023-02-19T19:28:36.078Z,97920.28
2023-02-19T19:31:02.467Z,97920.03
2023-02-19T19:33:28.781Z,97922.50
2023-02-19T19:35:55.126Z,97939.16
2023-02-19T19:38:21.463Z,97944.03
2023-02-19T19:40:47.717Z,97946.84
2023-02-19T19:43:13.986Z,97940.53
2023-02-19T19:45:40.436Z,97937.09
2023-02-19T19:48:06.800Z,97934.66
2023-02-19T19:50:33.058Z,97932.50
2023-02-19T19:52:59.324Z,97927.59
2023-02-19T19:55:25.606Z,97928.47
2023-02-19T19:57:51.883Z,97922.59
2023-02-19T20:00:18.141Z,97922.16
2023-02-19T20:02:44.488Z,97921.09
2023-02-19T20:05:10.779Z,97906.09
2023-02-19T20:07:37.057Z,97910.63
2023-02-19T20:10:03.399Z,97910.16
2023-02-19T20:12:29.665Z,97905.84
2023-02-19T20:14:55.942Z,97905.03
2023-02-19T20:17:22.222Z,97908.38
2023-02-19T20:19:48.506Z,97909.44
2023-02-19T20:22:14.811Z,97912.56
2023-02-19T20:24:41.109Z,97939.94
2023-02-19T20:27:07.366Z,97940.38
2023-02-19T20:29:33.630Z,97936.66
2023-02-19T20:32:00.204Z,97945.13
2023-02-19T20:34:26.615Z,97953.91
2023-02-19T20:36:52.867Z,97944.47
2023-02-19T20:39:19.137Z,97941.63
2023-02-19T20:41:45.381Z,97948.84
2023-02-19T20:44:11.682Z,97957.31
2023-02-19T20:46:38.052Z,97958.97
2023-02-19T20:49:04.386Z,97969.22
2023-02-19T20:51:30.775Z,97974.81
2023-02-19T20:53:57.069Z,97987.28
2023-02-19T20:56:23.346Z,97984.09
2023-02-19T20:58:49.654Z,97988.84
2023-02-19T21:01:15.968Z,97985.72
2023-02-19T21:03:42.277Z,97984.69
2023-02-19T21:06:08.596Z,97984.00
2023-02-19T21:08:34.885Z,97994.06
2023-02-19T21:11:01.173Z,97991.22
2023-02-19T21:13:29.930Z,97995.31
2023-02-19T21:15:56.504Z,97989.13
2023-02-19T21:18:22.803Z,97977.09
2023-02-19T21:20:49.101Z,97963.47
2023-02-19T21:23:15.377Z,97966.97
2023-02-19T21:25:41.638Z,97958.34
2023-02-19T21:28:07.920Z,97961.69
2023-02-19T21:30:34.186Z,97975.13
2023-02-19T21:33:00.530Z,97980.25
2023-02-19T21:35:26.837Z,97976.75
2023-02-19T21:37:53.118Z,97988.78
2023-02-19T21:40:19.389Z,97993.78
2023-02-19T21:42:45.745Z,97988.06
2023-02-19T21:45:12.007Z,97995.28
2023-02-19T21:47:38.275Z,97991.78
2023-02-19T21:50:04.558Z,97981.91
2023-02-19T21:52:30.853Z,97994.72
2023-02-19T21:54:57.124Z,98003.63
2023-02-19T21:57:23.377Z,98006.72
2023-02-19T21:59:49.665Z,98003.97
2023-02-19T22:02:15.938Z,98006.03
2023-02-19T22:04:42.185Z,98004.81
2023-02-19T22:07:08.454Z,98014.06
2023-02-19T22:09:34.726Z,98008.09
2023-02-19T22:12:00.964Z,98008.69
2023-02-19T22:14:27.203Z,98008.66
2023-02-19T22:16:53.494Z,98009.69
2023-02-19T22:19:19.874Z,98014.44
2023-02-19T22:21:46.133Z,98011.75
2023-02-19T22:24:12.399Z,98005.44
2023-02-19T22:26:38.690Z,98011.81
2023-02-19T22:29:04.956Z,98012.25
2023-02-19T22:31:31.263Z,98012.47
2023-02-19T22:33:57.553Z,98010.22
2023-02-19T22:36:23.835Z,98010.44
2023-02-19T22:38:50.141Z,98005.16
2023-02-19T22:41:16.432Z,98019.34
2023-02-19T22:43:42.723Z,98008.47
2023-02-19T22:46:09.006Z,98017.97
2023-02-19T22:48:35.250Z,98022.97
2023-02-19T22:51:01.525Z,98018.69
2023-02-19T22:53:27.782Z,98026.94
2023-02-19T22:55:54.098Z,98020.75
2023-02-19T22:58:20.376Z,98019.34
2023-02-19T23:00:46.673Z,98017.69
2023-02-19T23:03:12.946Z,98028.38
2023-02-19T23:05:39.253Z,98031.66
2023-02-19T23:08:05.521Z,98023.88
2023-02-19T23:10:31.781Z,98018.94
2023-02-19T23:12:58.043Z,98018.53
2023-02-19T23:15:24.319Z,98021.66
2023-02-19T23:17:50.566Z,98013.88
2023-02-19T23:20:16.848Z,98015.94
2023-02-19T23:22:43.094Z,98014.31
2023-02-19T23:25:09.350Z,98024.19
2023-02-19T23:27:35.608Z,98022.59
2023-02-19T23:30:01.874Z,98022.63
2023-02-19T23:32:28.146Z,98028.41
2023-02-19T23:34:54.414Z,98034.59
2023-02-19T23:37:20.669Z,98041.16
2023-02-19T23:39:46.943Z,98032.56
2023-02-19T23:42:13.202Z,98040.56
2023-02-19T23:44:39.462Z,98034.41
2023-02-19T23:47:05.728Z,98033.38
2023-02-19T23:49:32.077Z,98030.53
2023-02-19T23:51:58.347Z,98033.19
2023-02-19T23:54:24.631Z,98032.16
2023-02-19T23:56:50.916Z,98039.97
2023-02-19T23:59:17.180Z,98043.03
